Time;durP1;ratioP1;P1;durP2;ratioP2;P2;SDS_P1;SDS_P2;PMS_P1;PMS_P2;Temp;Humidity;BMP_temperature;BMP_pressure;BME280_temperature;BME280_humidity;BME280_pressure;Samples;Min_cycle;Max_cycle;Signal;HPM_P1;HPM_P2
2022/05/31 00:00:30;;;;;;;36.00;5.50;;;11.30;20.90;;;;;;5009006;28;20842;-63
2022/05/31 00:02:58;;;;;;;32.07;5.20;;;11.30;21.10;;;;;;5008272;28;20591;-62
2022/05/31 00:05:25;;;;;;;30.80;4.97;;;11.30;21.10;;;;;;5026545;28;20477;-63
2022/05/31 00:07:52;;;;;;;31.63;6.20;;;11.30;21.20;;;;;;5028374;28;20478;-63
2022/05/31 00:10:20;;;;;;;31.77;6.00;;;11.20;21.30;;;;;;5028103;28;20469;-62
2022/05/31 00:12:46;;;;;;;31.90;5.77;;;11.20;21.30;;;;;;5027731;28;20454;-62
2022/05/31 00:15:16;;;;;;;31.03;5.23;;;11.20;22.20;;;;;;5026704;28;20462;-63
2022/05/31 00:17:43;;;;;;;30.40;5.47;;;11.10;22.50;;;;;;5028275;28;20481;-62
2022/05/31 00:20:12;;;;;;;30.90;5.50;;;11.10;22.40;;;;;;5027613;28;20959;-62
2022/05/31 00:22:40;;;;;;;30.50;5.23;;;11.10;22.50;;;;;;5027604;28;20478;-62
2022/05/31 00:25:08;;;;;;;32.27;6.73;;;11.00;22.80;;;;;;5025850;28;20459;-62
2022/05/31 00:27:35;;;;;;;30.50;5.13;;;11.00;22.80;;;;;;5027881;28;20475;-62
2022/05/31 00:30:02;;;;;;;30.60;5.50;;;11.00;23.20;;;;;;5027837;28;20463;-62
2022/05/31 00:32:34;;;;;;;32.20;5.57;;;10.90;23.50;;;;;;5027499;28;20684;-63
2022/05/31 00:35:06;;;;;;;31.43;5.83;;;10.90;23.60;;;;;;5026658;28;20455;-63
2022/05/31 00:37:33;;;;;;;31.10;5.70;;;10.90;23.40;;;;;;5027946;28;20632;-63
2022/05/31 00:40:00;;;;;;;30.73;4.77;;;10.90;23.40;;;;;;5028243;28;20454;-63
2022/05/31 00:42:27;;;;;;;30.83;6.10;;;11.00;23.50;;;;;;5027266;28;20622;-62
2022/05/31 00:44:54;;;;;;;31.30;5.70;;;10.90;23.70;;;;;;5027167;28;20482;-62
2022/05/31 00:47:25;;;;;;;31.70;5.60;;;10.90;23.70;;;;;;5027273;28;20521;-62
2022/05/31 00:49:59;;;;;;;34.03;8.60;;;10.90;24.10;;;;;;5027436;28;20458;-63
2022/05/31 00:52:30;;;;;;;31.60;5.30;;;11.00;23.70;;;;;;5027343;28;20954;-62
2022/05/31 00:55:00;;;;;;;31.57;5.47;;;11.00;23.70;;;;;;5027367;28;20462;-62
2022/05/31 00:57:28;;;;;;;32.90;6.17;;;11.00;23.40;;;;;;5024955;28;20493;-62
2022/05/31 01:00:04;;;;;;;32.47;5.90;;;10.90;23.70;;;;;;5025523;28;20459;-62
2022/05/31 01:02:31;;;;;;;32.37;5.50;;;10.90;23.70;;;;;;5022698;28;20993;-62
2022/05/31 01:05:04;;;;;;;31.07;5.13;;;10.90;23.40;;;;;;5026499;28;20462;-62
2022/05/31 01:07:31;;;;;;;31.70;5.80;;;10.90;23.60;;;;;;5027506;28;20725;-63
2022/05/31 01:09:58;;;;;;;32.60;5.20;;;10.90;23.50;;;;;;5026714;28;20463;-62
2022/05/31 01:12:26;;;;;;;33.27;5.50;;;10.90;23.70;;;;;;5027396;28;20459;-62
2022/05/31 01:14:54;;;;;;;31.57;5.30;;;10.90;23.90;;;;;;5027823;28;20508;-63
2022/05/31 01:17:22;;;;;;;30.70;4.70;;;10.90;23.90;;;;;;5027777;28;20491;-63
2022/05/31 01:19:56;;;;;;;33.37;5.53;;;10.90;23.80;;;;;;5026179;28;20459;-62
2022/05/31 01:22:28;;;;;;;30.90;5.23;;;10.90;23.70;;;;;;5027410;28;20459;-63
2022/05/31 01:25:00;;;;;;;33.13;5.27;;;10.90;24.10;;;;;;5027525;28;20439;-62
2022/05/31 01:27:38;;;;;;;31.77;5.70;;;10.80;24.40;;;;;;5027234;28;20479;-62
2022/05/31 01:30:08;;;;;;;34.10;5.50;;;10.80;24.30;;;;;;5025472;28;20476;-62
2022/05/31 01:32:41;;;;;;;31.50;5.43;;;10.80;24.40;;;;;;5006349;28;21023;-63
2022/05/31 01:35:13;;;;;;;33.20;5.03;;;10.80;24.50;;;;;;5007423;28;20455;-63
2022/05/31 01:37:47;;;;;;;31.93;5.50;;;10.80;24.50;;;;;;5007518;28;20491;-62
2022/05/31 01:40:21;;;;;;;30.53;4.97;;;10.70;24.90;;;;;;5005758;28;20459;-62
2022/05/31 01:42:48;;;;;;;32.90;5.80;;;10.70;24.80;;;;;;5007463;28;20468;-62
2022/05/31 01:45:19;;;;;;;30.57;4.70;;;10.70;24.60;;;;;;5008039;28;20456;-62
2022/05/31 01:47:46;;;;;;;31.33;5.10;;;10.60;24.80;;;;;;5006848;28;20486;-63
2022/05/31 01:50:16;;;;;;;33.70;5.87;;;10.60;24.60;;;;;;5005622;28;20464;-62
2022/05/31 01:52:46;;;;;;;32.70;5.37;;;10.60;24.90;;;;;;5007015;28;20492;-62
2022/05/31 01:55:14;;;;;;;35.40;5.43;;;10.50;25.20;;;;;;5008453;28;21281;-62
2022/05/31 01:57:43;;;;;;;31.27;5.50;;;10.50;25.10;;;;;;5010903;28;20838;-63
2022/05/31 02:00:13;;;;;;;36.23;6.60;;;10.50;25.10;;;;;;5009457;28;20456;-62
2022/05/31 02:02:40;;;;;;;31.40;5.40;;;10.50;25.40;;;;;;5028897;28;20475;-62
2022/05/31 02:05:07;;;;;;;31.70;5.10;;;10.40;25.50;;;;;;5029166;28;20477;-62
2022/05/31 02:07:34;;;;;;;32.70;4.70;;;10.40;25.60;;;;;;5030857;28;20528;-62
2022/05/31 02:10:03;;;;;;;33.17;5.53;;;10.40;25.20;;;;;;5030857;28;20459;-62
2022/05/31 02:12:31;;;;;;;32.27;5.43;;;10.40;25.40;;;;;;5030164;28;20554;-62
2022/05/31 02:14:58;;;;;;;31.23;5.00;;;10.40;25.50;;;;;;5029273;28;20462;-62
2022/05/31 02:17:26;;;;;;;32.00;5.30;;;10.40;25.70;;;;;;5031420;28;20851;-62
2022/05/31 02:19:53;;;;;;;31.30;5.13;;;10.40;25.60;;;;;;5031691;28;20459;-62
2022/05/31 02:22:22;;;;;;;36.10;6.30;;;10.40;25.60;;;;;;5030683;28;20455;-62
2022/05/31 02:24:49;;;;;;;33.70;5.40;;;10.40;25.60;;;;;;5028086;28;20479;-62
2022/05/31 02:27:17;;;;;;;33.03;4.70;;;10.40;25.90;;;;;;5030159;28;20482;-63
2022/05/31 02:29:45;;;;;;;33.23;6.33;;;10.40;25.90;;;;;;5030013;28;20459;-62
2022/05/31 02:32:14;;;;;;;32.23;5.77;;;10.40;25.80;;;;;;5011349;28;20784;-63
2022/05/31 02:34:43;;;;;;;32.67;7.10;;;10.40;25.70;;;;;;5008709;28;20681;-63
2022/05/31 02:40:32;;;;;;;32.07;5.47;;;10.30;26.30;;;;;;5010242;28;20752;-63
2022/05/31 02:43:00;;;;;;;43.00;6.67;;;10.30;26.00;;;;;;5010331;28;21008;-63
2022/05/31 02:45:28;;;;;;;31.30;5.20;;;10.30;26.10;;;;;;5008483;28;20460;-62
2022/05/31 02:47:55;;;;;;;31.43;4.87;;;10.20;26.20;;;;;;5010983;28;20483;-63
2022/05/31 02:50:22;;;;;;;31.10;5.17;;;10.20;26.40;;;;;;5010472;28;20464;-63
2022/05/31 02:52:49;;;;;;;33.10;6.00;;;10.20;26.30;;;;;;5010051;28;20452;-63
2022/05/31 02:55:16;;;;;;;34.70;5.57;;;10.20;26.60;;;;;;5008773;28;20948;-62
2022/05/31 02:57:43;;;;;;;34.93;5.67;;;10.20;26.40;;;;;;5009822;28;20492;-62
2022/05/31 03:00:14;;;;;;;32.40;5.90;;;10.20;26.30;;;;;;5009883;28;20456;-63
2022/05/31 03:02:41;;;;;;;34.30;6.13;;;10.20;26.60;;;;;;5009523;28;20787;-63
2022/05/31 03:05:08;;;;;;;32.77;6.03;;;10.20;26.50;;;;;;5010027;28;20506;-63
2022/05/31 03:07:35;;;;;;;38.30;6.47;;;10.20;26.80;;;;;;5007071;28;20687;-63
2022/05/31 03:10:02;;;;;;;32.10;6.10;;;10.20;27.10;;;;;;5009842;28;20741;-63
2022/05/31 03:12:30;;;;;;;33.13;6.13;;;10.20;26.90;;;;;;5009175;28;20614;-62
2022/05/31 03:15:01;;;;;;;33.60;6.50;;;10.20;27.00;;;;;;5010030;28;20462;-63
2022/05/31 03:17:33;;;;;;;33.70;6.80;;;10.20;27.00;;;;;;5008410;28;20638;-62
2022/05/31 03:20:04;;;;;;;34.33;6.60;;;10.10;27.30;;;;;;5011019;28;20459;-63
2022/05/31 03:22:37;;;;;;;32.47;6.00;;;10.10;27.00;;;;;;5009570;28;20467;-62
2022/05/31 03:25:08;;;;;;;32.37;5.90;;;10.20;26.70;;;;;;5009464;28;20840;-62
2022/05/31 03:27:36;;;;;;;33.30;6.00;;;10.10;26.90;;;;;;5008462;28;20491;-62
2022/05/31 03:30:05;;;;;;;38.17;8.50;;;10.20;27.20;;;;;;5008411;28;20987;-62
2022/05/31 03:32:36;;;;;;;32.10;6.17;;;10.20;26.90;;;;;;5011336;28;20486;-61
2022/05/31 03:35:03;;;;;;;33.43;7.20;;;10.10;27.40;;;;;;5009680;28;20501;-61
2022/05/31 03:37:30;;;;;;;33.97;6.60;;;10.10;27.40;;;;;;5013809;28;20546;-61
2022/05/31 03:39:57;;;;;;;32.73;6.37;;;10.20;27.20;;;;;;5009058;28;20456;-60
2022/05/31 03:42:24;;;;;;;32.90;5.77;;;10.20;27.00;;;;;;5008619;28;20459;-60
2022/05/31 03:44:52;;;;;;;33.70;6.77;;;10.20;27.60;;;;;;5025074;28;20841;-61
2022/05/31 03:47:19;;;;;;;33.27;5.77;;;10.10;28.30;;;;;;5027493;28;20530;-60
2022/05/31 03:49:47;;;;;;;32.30;5.83;;;10.10;28.20;;;;;;5031177;28;20462;-61
2022/05/31 03:52:14;;;;;;;33.60;6.00;;;10.10;28.40;;;;;;5028405;28;20827;-60
2022/05/31 03:54:41;;;;;;;33.30;6.63;;;10.20;27.90;;;;;;5028782;28;20542;-61
2022/05/31 03:57:14;;;;;;;33.40;6.30;;;10.20;28.10;;;;;;5027933;28;20473;-60
2022/05/31 03:59:41;;;;;;;32.77;6.40;;;10.20;28.20;;;;;;5028817;28;20469;-60
2022/05/31 04:02:08;;;;;;;33.10;6.27;;;10.20;28.60;;;;;;5025822;28;20475;-62
2022/05/31 04:04:36;;;;;;;33.53;6.50;;;10.20;28.20;;;;;;5019741;28;20875;-62
2022/05/31 04:07:04;;;;;;;32.80;5.90;;;10.30;28.10;;;;;;5007499;28;20486;-62
2022/05/31 04:09:32;;;;;;;33.07;6.00;;;10.30;27.70;;;;;;5021812;28;20529;-62
2022/05/31 04:12:00;;;;;;;33.47;5.77;;;10.30;27.30;;;;;;5026978;28;20711;-62
2022/05/31 04:14:27;;;;;;;34.47;5.83;;;10.40;27.20;;;;;;5008295;28;20470;-62
2022/05/31 04:16:54;;;;;;;36.63;5.23;;;10.40;27.10;;;;;;5012813;28;20463;-62
2022/05/31 04:19:21;;;;;;;33.60;6.40;;;10.50;26.90;;;;;;5016395;28;20498;-62
2022/05/31 04:21:47;;;;;;;34.27;6.27;;;10.50;26.80;;;;;;5009048;28;20448;-62
2022/05/31 04:24:16;;;;;;;31.70;5.77;;;10.50;27.00;;;;;;5007532;28;20502;-62
2022/05/31 04:26:45;;;;;;;33.80;5.87;;;10.60;27.20;;;;;;5007557;28;20562;-62
2022/05/31 04:29:12;;;;;;;35.53;5.80;;;10.60;26.90;;;;;;5008256;28;20459;-62
2022/05/31 04:31:39;;;;;;;36.50;5.50;;;10.70;26.50;;;;;;5007626;28;20482;-62
2022/05/31 04:34:06;;;;;;;34.53;5.10;;;10.90;27.00;;;;;;5008376;28;20460;-62
2022/05/31 04:36:33;;;;;;;33.30;5.13;;;11.90;25.70;;;;;;5008630;28;20467;-62
2022/05/31 04:39:00;;;;;;;32.80;5.10;;;13.10;23.00;;;;;;5007622;28;20491;-62
2022/05/31 04:41:30;;;;;;;33.27;4.50;;;14.30;20.10;;;;;;5008328;28;20459;-63
2022/05/31 04:43:59;;;;;;;37.63;4.97;;;15.30;17.60;;;;;;5007692;28;20484;-63
2022/05/31 04:46:28;;;;;;;31.30;4.13;;;15.40;16.30;;;;;;5008292;28;20460;-63
2022/05/31 04:48:56;;;;;;;32.20;5.20;;;14.80;16.80;;;;;;5007661;28;20708;-63
2022/05/31 04:51:24;;;;;;;34.20;4.60;;;14.30;17.70;;;;;;5006747;28;20460;-63
2022/05/31 04:53:51;;;;;;;32.73;4.80;;;14.10;19.00;;;;;;5008128;28;20543;-63
2022/05/31 04:56:20;;;;;;;34.47;4.80;;;14.90;18.30;;;;;;5008067;28;20459;-63
2022/05/31 04:58:49;;;;;;;31.40;4.43;;;15.50;17.30;;;;;;5007794;28;20484;-62
2022/05/31 05:01:16;;;;;;;30.77;4.10;;;16.70;16.10;;;;;;5006096;28;20483;-62
2022/05/31 05:03:44;;;;;;;30.53;4.30;;;17.50;13.60;;;;;;5008110;28;20490;-63
2022/05/31 05:06:12;;;;;;;31.23;4.57;;;17.50;13.20;;;;;;5007182;28;20459;-63
2022/05/31 05:08:39;;;;;;;31.90;4.70;;;17.90;13.00;;;;;;5007417;28;20973;-63
2022/05/31 05:11:09;;;;;;;33.13;5.20;;;18.00;12.20;;;;;;5005648;28;20464;-63
2022/05/31 05:13:36;;;;;;;31.13;4.90;;;17.80;12.00;;;;;;5007162;28;20464;-63
2022/05/31 05:16:05;;;;;;;33.60;4.93;;;17.30;12.70;;;;;;5002394;28;20463;-63
2022/05/31 05:18:32;;;;;;;32.40;5.10;;;16.90;13.60;;;;;;5002264;28;20483;-64
2022/05/31 05:21:00;;;;;;;30.90;4.90;;;16.80;14.60;;;;;;5003193;28;20467;-63
2022/05/31 05:23:27;;;;;;;31.57;5.40;;;16.80;14.40;;;;;;5008702;28;21110;-63
2022/05/31 05:25:56;;;;;;;30.00;4.40;;;17.70;14.60;;;;;;5005956;28;20467;-63
2022/05/31 05:31:19;;;;;;;30.70;4.83;;;19.90;10.50;;;;;;5008963;28;20526;-63
2022/05/31 05:33:45;;;;;;;30.47;4.73;;;19.70;9.90;;;;;;5011186;28;20450;-63
2022/05/31 05:36:13;;;;;;;29.97;4.33;;;19.20;10.80;;;;;;5011855;28;20463;-63
2022/05/31 05:38:39;;;;;;;30.87;4.90;;;20.00;10.30;;;;;;5012115;28;20476;-63
2022/05/31 05:41:06;;;;;;;30.80;4.50;;;21.20;9.50;;;;;;5012107;28;20483;-63
2022/05/31 05:43:33;;;;;;;31.20;4.43;;;22.40;7.30;;;;;;5010599;28;20464;-63
2022/05/31 05:46:00;;;;;;;29.60;4.27;;;23.60;5.30;;;;;;5011485;28;20460;-63
2022/05/31 05:48:28;;;;;;;31.93;4.63;;;23.40;4.00;;;;;;5011474;28;20476;-63
2022/05/31 05:50:55;;;;;;;36.00;5.00;;;22.60;4.60;;;;;;5011645;28;20463;-63
2022/05/31 05:53:21;;;;;;;32.40;5.07;;;21.50;5.50;;;;;;5009806;28;20460;-63
2022/05/31 05:55:48;;;;;;;31.13;4.70;;;20.50;7.00;;;;;;5011845;28;20462;-63
2022/05/31 05:58:15;;;;;;;30.83;4.77;;;19.50;8.40;;;;;;5011926;28;20498;-63
2022/05/31 06:00:46;;;;;;;30.70;4.80;;;18.70;9.50;;;;;;5010315;28;20486;-63
2022/05/31 06:03:19;;;;;;;31.30;4.87;;;18.10;10.90;;;;;;5009857;28;20456;-63
2022/05/31 06:05:48;;;;;;;31.93;4.60;;;17.60;12.20;;;;;;5011248;28;20475;-63
2022/05/31 06:08:21;;;;;;;30.50;4.83;;;17.20;12.80;;;;;;5011421;28;20499;-63
2022/05/31 06:11:00;;;;;;;32.70;5.73;;;16.80;13.50;;;;;;5011011;28;20460;-63
2022/05/31 06:13:32;;;;;;;31.20;5.23;;;16.50;14.50;;;;;;5009567;28;20452;-63
2022/05/31 06:15:59;;;;;;;31.73;4.70;;;16.20;15.40;;;;;;5011146;28;20460;-63
2022/05/31 06:18:30;;;;;;;32.33;5.30;;;15.90;15.80;;;;;;5011781;28;20476;-63
2022/05/31 06:21:03;;;;;;;30.60;4.63;;;15.80;16.30;;;;;;5010950;28;20460;-63
2022/05/31 06:23:29;;;;;;;32.07;5.40;;;15.60;17.00;;;;;;5010277;28;20467;-63
2022/05/31 06:25:58;;;;;;;34.30;5.80;;;15.40;17.40;;;;;;5009904;28;20553;-62
2022/05/31 06:28:25;;;;;;;31.40;5.47;;;15.20;18.00;;;;;;5010924;28;20844;-63
2022/05/31 06:30:52;;;;;;;32.20;5.17;;;15.10;18.30;;;;;;5010574;28;20711;-63
2022/05/31 06:33:19;;;;;;;31.67;5.60;;;14.90;18.80;;;;;;5010788;28;20969;-62
2022/05/31 06:35:45;;;;;;;32.30;6.00;;;14.90;18.80;;;;;;5009420;28;20466;-63
2022/05/31 06:38:16;;;;;;;32.03;6.73;;;14.90;19.30;;;;;;5010443;28;20482;-62
2022/05/31 06:40:43;;;;;;;32.87;8.47;;;14.90;19.80;;;;;;5010394;28;20452;-63
2022/05/31 06:43:10;;;;;;;35.57;6.87;;;14.80;20.00;;;;;;5010175;28;20468;-63
2022/05/31 06:45:37;;;;;;;35.70;7.13;;;14.80;20.40;;;;;;5009566;28;20484;-63
2022/05/31 06:48:04;;;;;;;30.53;5.23;;;14.80;21.10;;;;;;5010867;28;20651;-63
2022/05/31 06:50:31;;;;;;;31.80;6.03;;;14.90;20.90;;;;;;5010899;28;20455;-63
2022/05/31 06:58:28;;;;;;;32.50;6.17;;;15.00;21.60;;;;;;5010407;28;20625;-63
2022/05/31 07:00:56;;;;;;;32.40;6.60;;;15.00;21.70;;;;;;5009563;28;20988;-63
2022/05/31 07:03:23;;;;;;;33.07;6.20;;;15.30;21.00;;;;;;5009107;28;20901;-63
2022/05/31 07:05:56;;;;;;;33.10;6.10;;;15.60;20.90;;;;;;5008413;28;20862;-63
2022/05/31 07:08:23;;;;;;;32.60;6.80;;;16.60;19.90;;;;;;5010042;28;20485;-63
2022/05/31 07:10:51;;;;;;;35.20;8.57;;;18.20;17.90;;;;;;5010146;28;20452;-63
2022/05/31 07:13:18;;;;;;;33.53;7.00;;;19.30;14.40;;;;;;5009560;28;20466;-63
2022/05/31 07:15:45;;;;;;;34.63;6.87;;;20.20;13.10;;;;;;5008165;28;20979;-63
2022/05/31 07:18:12;;;;;;;32.30;6.07;;;20.80;12.10;;;;;;5010217;28;20493;-63
2022/05/31 07:20:39;;;;;;;30.63;4.70;;;22.40;10.40;;;;;;5009377;28;20460;-63
2022/05/31 07:23:06;;;;;;;30.87;5.17;;;22.70;8.30;;;;;;5009905;28;20462;-63
2022/05/31 07:25:33;;;;;;;31.67;6.00;;;22.00;8.50;;;;;;5008700;28;21012;-63
2022/05/31 07:28:01;;;;;;;29.60;5.03;;;23.10;9.30;;;;;;5008967;28;20493;-63
2022/05/31 07:30:28;;;;;;;30.40;5.43;;;24.60;5.90;;;;;;5009095;28;20471;-63
2022/05/31 07:32:55;;;;;;;29.97;4.93;;;24.40;5.30;;;;;;5009574;28;20459;-63
2022/05/31 07:35:22;;;;;;;30.70;4.90;;;24.10;5.30;;;;;;5009940;28;20463;-63
2022/05/31 07:37:48;;;;;;;28.83;4.63;;;24.70;5.60;;;;;;5007245;28;20487;-63
2022/05/31 07:40:15;;;;;;;28.63;5.00;;;26.10;5.10;;;;;;5009526;28;20470;-63
2022/05/31 07:42:42;;;;;;;28.60;4.90;;;29.90;1.00;;;;;;5009202;28;20460;-63
2022/05/31 07:45:12;;;;;;;28.20;4.03;;;32.40;1.00;;;;;;5009476;28;20490;-63
2022/05/31 07:47:39;;;;;;;26.43;4.13;;;34.40;1.00;;;;;;5007149;28;20492;-63
2022/05/31 07:50:06;;;;;;;30.50;4.17;;;34.10;1.00;;;;;;5009866;28;20467;-63
2022/05/31 07:52:33;;;;;;;28.80;4.60;;;35.10;1.00;;;;;;5008802;28;20463;-64
2022/05/31 07:55:01;;;;;;;27.87;4.17;;;34.60;1.00;;;;;;5009569;28;20494;-64
2022/05/31 08:00:15;;;;;;;26.33;3.93;;;37.90;1.00;;;;;;5008726;28;20499;-64
2022/05/31 08:02:42;;;;;;;24.27;3.37;;;39.80;1.00;;;;;;5008829;28;20470;-64
2022/05/31 08:05:09;;;;;;;24.37;3.40;;;41.40;1.00;;;;;;5008875;28;20479;-64
2022/05/31 08:07:36;;;;;;;25.03;3.23;;;42.80;1.00;;;;;;5009013;28;20936;-64
2022/05/31 08:10:03;;;;;;;22.87;2.90;;;43.50;1.00;;;;;;5007948;28;20963;-64
2022/05/31 08:12:30;;;;;;;23.60;3.00;;;44.50;1.00;;;;;;5008699;28;20491;-64
2022/05/31 08:14:57;;;;;;;23.87;3.23;;;45.10;1.00;;;;;;5008854;28;20459;-64
2022/05/31 08:17:25;;;;;;;23.50;2.93;;;45.90;1.00;;;;;;5008918;28;20852;-64
2022/05/31 08:19:54;;;;;;;22.60;3.10;;;45.60;1.00;;;;;;5007511;28;20472;-64
2022/05/31 08:22:21;;;;;;;23.90;3.27;;;46.00;1.00;;;;;;5009092;28;20466;-64
2022/05/31 08:24:49;;;;;;;23.10;2.67;;;46.60;1.00;;;;;;5008355;28;21052;-65
2022/05/31 08:27:16;;;;;;;23.37;3.10;;;47.10;1.00;;;;;;5008642;28;20484;-65
2022/05/31 08:29:43;;;;;;;24.70;3.50;;;47.80;1.00;;;;;;5007848;28;20922;-65
2022/05/31 08:32:10;;;;;;;23.60;2.67;;;48.40;1.00;;;;;;5008496;28;21046;-65
2022/05/31 08:34:38;;;;;;;21.87;2.70;;;49.10;1.00;;;;;;5008908;28;20467;-64
2022/05/31 08:37:05;;;;;;;22.17;3.10;;;49.40;1.00;;;;;;5008624;28;20483;-64
2022/05/31 08:39:32;;;;;;;23.20;3.00;;;49.70;1.00;;;;;;5006859;28;20909;-65
2022/05/31 08:42:06;;;;;;;21.50;2.97;;;49.70;1.00;;;;;;5008424;28;20472;-65
2022/05/31 08:44:45;;;;;;;21.27;2.87;;;50.00;1.00;;;;;;5008389;28;20471;-65
2022/05/31 08:47:22;;;;;;;22.87;2.60;;;50.30;1.00;;;;;;5008644;28;20534;-65
2022/05/31 08:52:57;;;;;;;20.50;2.40;;;51.80;1.00;;;;;;5008044;28;20446;-65
2022/05/31 08:58:17;;;;;;;22.30;3.43;;;51.70;1.00;;;;;;5007937;28;20474;-65
2022/05/31 09:00:48;;;;;;;23.13;2.37;;;51.50;1.00;;;;;;5006630;28;20474;-65
2022/05/31 09:03:20;;;;;;;21.13;2.63;;;50.80;1.00;;;;;;5007928;28;20926;-65
2022/05/31 09:05:55;;;;;;;20.23;2.53;;;50.50;1.00;;;;;;5010471;28;20660;-65
2022/05/31 09:08:25;;;;;;;20.50;2.53;;;50.90;1.00;;;;;;5011965;28;20489;-65
2022/05/31 09:11:01;;;;;;;21.30;2.77;;;51.60;1.00;;;;;;5010089;28;20514;-65
2022/05/31 09:13:35;;;;;;;20.20;2.47;;;52.00;1.00;;;;;;5012242;28;20447;-65
2022/05/31 09:16:11;;;;;;;20.80;2.50;;;52.70;1.00;;;;;;5012082;28;20945;-65
2022/05/31 09:18:43;;;;;;;21.30;2.93;;;53.00;1.00;;;;;;5011572;28;20483;-65
2022/05/31 09:21:20;;;;;;;20.00;2.57;;;52.70;1.00;;;;;;5011077;28;20614;-65
2022/05/31 09:23:47;;;;;;;20.50;2.40;;;52.60;1.00;;;;;;5012142;28;20443;-65
2022/05/31 09:26:33;;;;;;;20.60;2.20;;;52.50;1.00;;;;;;5012257;28;20487;-65
2022/05/31 09:29:09;;;;;;;21.47;2.40;;;51.70;1.00;;;;;;5011631;28;20998;-65
2022/05/31 09:31:42;;;;;;;21.90;2.87;;;49.70;1.00;;;;;;5009542;28;20479;-64
2022/05/31 09:34:32;;;;;;;21.73;2.60;;;47.30;1.00;;;;;;5011640;28;20463;-64
2022/05/31 09:37:08;;;;;;;22.77;2.77;;;45.10;1.00;;;;;;5008239;28;20487;-64
2022/05/31 09:39:41;;;;;;;22.80;2.27;;;43.00;1.00;;;;;;5011946;28;20448;-64
2022/05/31 09:42:14;;;;;;;23.60;2.50;;;41.20;1.00;;;;;;5010577;28;20463;-64
2022/05/31 09:44:45;;;;;;;23.70;3.00;;;39.40;1.00;;;;;;5012021;28;20460;-64
2022/05/31 09:47:17;;;;;;;25.10;3.10;;;38.00;1.00;;;;;;5012120;28;20828;-64
2022/05/31 09:49:46;;;;;;;25.47;2.77;;;36.80;1.00;;;;;;5011549;28;20460;-64
2022/05/31 09:52:18;;;;;;;24.63;2.80;;;35.60;1.00;;;;;;5009955;28;21041;-64
2022/05/31 09:58:13;;;;;;;25.30;2.67;;;33.20;1.00;;;;;;4931500;29;20502;-64
2022/05/31 10:00:59;;;;;;;25.30;3.10;;;32.20;1.00;;;;;;4930521;29;20833;-64
2022/05/31 10:03:35;;;;;;;26.70;3.60;;;31.40;1.00;;;;;;4991177;28;20984;-64
2022/05/31 10:06:11;;;;;;;26.90;3.73;;;30.70;1.00;;;;;;5010778;28;20660;-64
2022/05/31 10:08:39;;;;;;;26.27;3.07;;;30.10;1.00;;;;;;5011501;28;20483;-64
2022/05/31 10:11:11;;;;;;;28.90;3.40;;;29.70;1.00;;;;;;5011277;28;20459;-64
2022/05/31 10:13:40;;;;;;;26.30;3.40;;;29.30;1.00;;;;;;5009434;28;20577;-64
2022/05/31 10:16:15;;;;;;;27.17;3.57;;;29.00;1.00;;;;;;5009159;28;20555;-64
2022/05/31 10:18:49;;;;;;;27.93;3.80;;;28.70;1.00;;;;;;5011399;28;20479;-64
2022/05/31 10:21:28;;;;;;;26.10;3.30;;;28.60;1.00;;;;;;5011307;28;20476;-63
2022/05/31 10:24:00;;;;;;;26.60;4.10;;;28.30;1.00;;;;;;5011119;28;21015;-64
2022/05/31 10:26:33;;;;;;;28.33;3.70;;;28.00;1.00;;;;;;5009453;28;20836;-63
2022/05/31 10:29:03;;;;;;;26.87;4.10;;;27.80;1.00;;;;;;5010925;28;20486;-63
2022/05/31 10:31:35;;;;;;;27.57;3.40;;;27.60;1.00;;;;;;5010184;28;20984;-64
2022/05/31 10:34:04;;;;;;;28.07;3.80;;;27.30;1.00;;;;;;5010488;28;20972;-64
2022/05/31 10:36:33;;;;;;;28.77;3.50;;;27.10;1.00;;;;;;5008924;28;20490;-64
2022/05/31 10:39:10;;;;;;;28.20;3.87;;;26.90;1.50;;;;;;5010190;28;20484;-63
2022/05/31 10:41:39;;;;;;;28.03;3.93;;;26.70;1.80;;;;;;5010869;28;20646;-63
2022/05/31 10:44:10;;;;;;;28.57;3.10;;;26.50;1.50;;;;;;5010554;28;20460;-63
2022/05/31 10:46:38;;;;;;;27.10;3.43;;;26.40;2.40;;;;;;5008695;28;20486;-63
2022/05/31 10:49:11;;;;;;;27.50;2.80;;;26.20;2.20;;;;;;5010632;28;20463;-63
2022/05/31 10:51:48;;;;;;;29.00;3.40;;;26.10;2.50;;;;;;5010466;28;20471;-63
2022/05/31 10:54:37;;;;;;;29.13;3.60;;;26.00;1.60;;;;;;5010208;28;20463;-63
2022/05/31 10:57:16;;;;;;;27.77;3.37;;;26.10;2.10;;;;;;5008542;28;20595;-63
2022/05/31 10:59:50;;;;;;;26.17;2.70;;;26.30;1.90;;;;;;5010339;28;20448;-63
2022/05/31 11:02:45;;;;;;;28.37;3.40;;;26.30;1.80;;;;;;5010337;28;20559;-63
2022/05/31 11:05:14;;;;;;;27.80;3.33;;;26.40;1.70;;;;;;5009594;28;21184;-64
2022/05/31 11:13:36;;;;;;;40.10;4.23;;;26.10;1.30;;;;;;4994436;28;20503;-63
2022/05/31 11:16:12;;;;;;;30.57;3.30;;;25.80;1.30;;;;;;5010092;28;20459;-63
2022/05/31 11:18:57;;;;;;;27.57;2.77;;;25.70;1.20;;;;;;5008182;28;20490;-63
2022/05/31 11:21:47;;;;;;;30.13;3.33;;;25.60;1.00;;;;;;5010123;28;20696;-63
2022/05/31 11:24:28;;;;;;;30.30;3.50;;;25.60;1.00;;;;;;5009645;28;20787;-64
2022/05/31 11:27:09;;;;;;;27.40;3.33;;;25.60;1.30;;;;;;5009981;28;20472;-63
2022/05/31 11:29:49;;;;;;;28.17;3.00;;;25.70;2.10;;;;;;5009425;28;20471;-63
2022/05/31 11:32:24;;;;;;;27.97;3.00;;;25.60;1.60;;;;;;5009250;28;21156;-63
2022/05/31 11:35:05;;;;;;;30.13;3.80;;;25.70;2.70;;;;;;5010093;28;20455;-63
2022/05/31 11:37:53;;;;;;;28.20;3.23;;;25.80;1.80;;;;;;5009051;28;20486;-63
2022/05/31 11:40:33;;;;;;;27.80;3.23;;;26.00;2.50;;;;;;4990233;28;20791;-63
2022/05/31 11:43:20;;;;;;;26.73;2.97;;;26.20;2.00;;;;;;4989308;28;20457;-63
2022/05/31 11:45:57;;;;;;;26.90;2.90;;;26.30;1.70;;;;;;4989514;28;20892;-63
2022/05/31 11:48:55;;;;;;;29.67;3.17;;;26.60;1.30;;;;;;4991795;28;20493;-63
2022/05/31 11:51:33;;;;;;;27.00;2.87;;;26.80;1.00;;;;;;5009565;28;20448;-63
2022/05/31 11:54:44;;;;;;;27.27;2.43;;;26.90;1.00;;;;;;5009330;28;20471;-63
2022/05/31 11:57:23;;;;;;;29.30;3.20;;;26.90;1.00;;;;;;5009446;28;20476;-63
2022/05/31 11:59:57;;;;;;;27.03;2.53;;;26.90;1.00;;;;;;5007287;28;20456;-64
2022/05/31 12:02:30;;;;;;;26.23;2.63;;;27.00;1.00;;;;;;5008706;28;20559;-63
2022/05/31 12:05:01;;;;;;;27.43;2.97;;;26.90;1.00;;;;;;5008899;28;20456;-63
2022/05/31 12:07:35;;;;;;;28.77;2.70;;;27.00;1.00;;;;;;5008690;28;20499;-63
2022/05/31 12:10:07;;;;;;;26.60;2.37;;;27.00;1.00;;;;;;5007345;28;20464;-64
2022/05/31 12:12:36;;;;;;;27.43;2.90;;;27.00;1.00;;;;;;5009290;28;20869;-64
2022/05/31 12:15:11;;;;;;;26.53;2.60;;;27.00;1.00;;;;;;5008920;28;20832;-63
2022/05/31 12:17:44;;;;;;;28.30;2.47;;;26.90;1.00;;;;;;5008625;28;20538;-64
2022/05/31 12:20:20;;;;;;;27.00;2.83;;;26.80;1.00;;;;;;5007531;28;20471;-64
2022/05/31 12:22:53;;;;;;;26.53;2.33;;;26.80;1.00;;;;;;5008923;28;20459;-64
2022/05/31 12:25:25;;;;;;;27.17;2.50;;;26.60;1.00;;;;;;5009112;28;20448;-64
2022/05/31 12:27:56;;;;;;;26.83;2.50;;;26.50;1.00;;;;;;5008266;28;20495;-65
2022/05/31 12:30:30;;;;;;;27.03;2.23;;;26.40;1.00;;;;;;5006820;28;20464;-65
2022/05/31 12:32:58;;;;;;;27.23;2.73;;;26.30;1.00;;;;;;5008562;28;20459;-63
2022/05/31 12:35:55;;;;;;;26.37;2.30;;;26.20;1.00;;;;;;5008835;28;20886;-63
2022/05/31 12:38:22;;;;;;;29.53;3.53;;;25.90;1.00;;;;;;5007736;28;20491;-63
2022/05/31 12:40:51;;;;;;;27.03;2.60;;;25.70;1.00;;;;;;5007087;28;20463;-63
2022/05/31 12:43:45;;;;;;;27.30;2.70;;;25.50;1.00;;;;;;5008012;28;20566;-63
2022/05/31 12:46:41;;;;;;;29.00;2.20;;;25.30;1.00;;;;;;5008480;28;20468;-63
2022/05/31 12:49:11;;;;;;;27.90;2.30;;;25.10;1.00;;;;;;5007836;28;20460;-63
2022/05/31 12:51:38;;;;;;;27.67;2.70;;;24.90;1.00;;;;;;5006792;28;20460;-63
2022/05/31 12:54:17;;;;;;;29.20;2.60;;;24.80;1.30;;;;;;5008062;28;20571;-63
2022/05/31 12:57:02;;;;;;;31.20;2.80;;;24.60;1.40;;;;;;5008406;28;20447;-63
2022/05/31 12:59:56;;;;;;;28.17;2.83;;;24.40;1.90;;;;;;5008024;28;20463;-63
2022/05/31 13:02:39;;;;;;;27.67;3.30;;;24.20;2.50;;;;;;4959731;28;21020;-63
2022/05/31 13:05:44;;;;;;;28.60;3.20;;;24.00;3.90;;;;;;5008199;28;20983;-63
2022/05/31 13:08:15;;;;;;;28.50;3.60;;;23.70;7.40;;;;;;4986260;28;20499;-63
2022/05/31 13:22:02;;;;;;;27.70;4.17;;;22.80;14.70;;;;;;5007084;28;20567;-63
2022/05/31 13:24:30;;;;;;;30.17;3.43;;;22.90;13.20;;;;;;5008031;28;20464;-63
2022/05/31 13:26:59;;;;;;;26.43;3.50;;;23.10;12.10;;;;;;5007111;28;20480;-63
2022/05/31 13:29:26;;;;;;;27.30;3.33;;;23.20;11.60;;;;;;5007926;28;20834;-63
2022/05/31 13:31:55;;;;;;;27.50;3.30;;;23.40;10.80;;;;;;5007002;28;20558;-63
2022/05/31 13:34:30;;;;;;;27.30;3.20;;;23.40;10.60;;;;;;5006348;28;20470;-63
2022/05/31 13:36:58;;;;;;;28.83;4.03;;;23.30;10.00;;;;;;5006799;28;20970;-63
2022/05/31 13:39:26;;;;;;;27.80;2.97;;;23.20;9.40;;;;;;5008503;28;20470;-63